sensor_id;sensor_type;location;lat;lon;timestamp;temperature;humidity
66271;DHT22;53063;39.614;8.814;2023-01-13T00:00:12;8.10;99.90
66271;DHT22;53063;39.614;8.814;2023-01-13T00:02:38;8.20;99.90
66271;DHT22;53063;39.614;8.814;2023-01-13T00:05:04;8.20;99.90
66271;DHT22;53063;39.614;8.814;2023-01-13T00:07:31;8.20;99.90
66271;DHT22;53063;39.614;8.814;2023-01-13T00:09:57;8.10;99.90
66271;DHT22;53063;39.614;8.814;2023-01-13T00:12:23;8.10;99.90
66271;DHT22;53063;39.614;8.814;2023-01-13T00:14:49;8.20;99.90
66271;DHT22;53063;39.614;8.814;2023-01-13T00:17:15;8.10;99.90
66271;DHT22;53063;39.614;8.814;2023-01-13T00:19:40;8.00;99.90
66271;DHT22;53063;39.614;8.814;2023-01-13T00:22:06;8.00;99.90
66271;DHT22;53063;39.614;8.814;2023-01-13T00:24:32;8.00;99.90
66271;DHT22;53063;39.614;8.814;2023-01-13T00:26:58;8.00;99.90
66271;DHT22;53063;39.614;8.814;2023-01-13T00:29:24;7.60;99.90
66271;DHT22;53063;39.614;8.814;2023-01-13T00:31:50;7.40;99.90
66271;DHT22;53063;39.614;8.814;2023-01-13T00:34:16;7.50;99.90
66271;DHT22;53063;39.614;8.814;2023-01-13T00:36:42;7.70;99.90
66271;DHT22;53063;39.614;8.814;2023-01-13T00:39:08;7.70;99.90
66271;DHT22;53063;39.614;8.814;2023-01-13T00:41:33;7.70;99.90
66271;DHT22;53063;39.614;8.814;2023-01-13T00:44:19;7.80;99.90
66271;DHT22;53063;39.614;8.814;2023-01-13T00:46:45;7.60;99.90
66271;DHT22;53063;39.614;8.814;2023-01-13T00:49:11;7.40;99.90
66271;DHT22;53063;39.614;8.814;2023-01-13T00:51:37;7.40;99.90
66271;DHT22;53063;39.614;8.814;2023-01-13T00:54:03;7.60;99.90
66271;DHT22;53063;39.614;8.814;2023-01-13T00:56:29;7.60;99.90
66271;DHT22;53063;39.614;8.814;2023-01-13T00:58:55;7.50;99.90
66271;DHT22;53063;39.614;8.814;2023-01-13T01:01:23;7.50;99.90
66271;DHT22;53063;39.614;8.814;2023-01-13T01:03:52;7.60;99.90
66271;DHT22;53063;39.614;8.814;2023-01-13T01:06:24;7.50;99.90
66271;DHT22;53063;39.614;8.814;2023-01-13T01:08:51;7.60;99.90
66271;DHT22;53063;39.614;8.814;2023-01-13T01:11:20;7.50;99.90
66271;DHT22;53063;39.614;8.814;2023-01-13T01:13:46;7.50;99.90
66271;DHT22;53063;39.614;8.814;2023-01-13T01:16:15;7.70;99.90
66271;DHT22;53063;39.614;8.814;2023-01-13T01:18:45;7.70;99.90
66271;DHT22;53063;39.614;8.814;2023-01-13T01:21:12;7.80;99.90
66271;DHT22;53063;39.614;8.814;2023-01-13T01:23:40;7.80;99.90
66271;DHT22;53063;39.614;8.814;2023-01-13T01:26:17;7.70;99.90
66271;DHT22;53063;39.614;8.814;2023-01-13T01:28:44;7.80;99.90
66271;DHT22;53063;39.614;8.814;2023-01-13T01:31:16;7.90;99.90
66271;DHT22;53063;39.614;8.814;2023-01-13T01:33:42;7.90;99.90
66271;DHT22;53063;39.614;8.814;2023-01-13T01:36:09;7.90;99.90
66271;DHT22;53063;39.614;8.814;2023-01-13T01:38:36;7.90;99.90
66271;DHT22;53063;39.614;8.814;2023-01-13T01:41:02;7.90;99.90
66271;DHT22;53063;39.614;8.814;2023-01-13T01:46:43;7.80;99.90
66271;DHT22;53063;39.614;8.814;2023-01-13T01:49:19;7.70;99.90
66271;DHT22;53063;39.614;8.814;2023-01-13T01:52:13;7.80;99.90
66271;DHT22;53063;39.614;8.814;2023-01-13T01:54:51;7.80;99.90
66271;DHT22;53063;39.614;8.814;2023-01-13T01:57:23;7.90;99.90
66271;DHT22;53063;39.614;8.814;2023-01-13T01:59:50;7.90;99.90
66271;DHT22;53063;39.614;8.814;2023-01-13T02:02:17;7.90;99.90
66271;DHT22;53063;39.614;8.814;2023-01-13T02:04:47;7.90;99.90
66271;DHT22;53063;39.614;8.814;2023-01-13T02:07:18;8.00;99.90
66271;DHT22;53063;39.614;8.814;2023-01-13T02:09:45;7.70;99.90
66271;DHT22;53063;39.614;8.814;2023-01-13T02:12:11;7.50;99.90
66271;DHT22;53063;39.614;8.814;2023-01-13T02:15:09;7.70;99.90
66271;DHT22;53063;39.614;8.814;2023-01-13T02:28:24;8.10;99.90
66271;DHT22;53063;39.614;8.814;2023-01-13T02:31:02;7.80;99.90
66271;DHT22;53063;39.614;8.814;2023-01-13T02:36:28;7.90;99.90
66271;DHT22;53063;39.614;8.814;2023-01-13T02:39:02;7.90;99.90
66271;DHT22;53063;39.614;8.814;2023-01-13T02:45:14;7.70;99.90
66271;DHT22;53063;39.614;8.814;2023-01-13T02:47:34;7.60;99.90
66271;DHT22;53063;39.614;8.814;2023-01-13T02:50:15;7.60;99.90
66271;DHT22;53063;39.614;8.814;2023-01-13T02:52:49;7.60;99.90
66271;DHT22;53063;39.614;8.814;2023-01-13T02:55:20;7.50;99.90
66271;DHT22;53063;39.614;8.814;2023-01-13T02:57:48;7.40;99.90
66271;DHT22;53063;39.614;8.814;2023-01-13T03:00:16;7.10;99.90
66271;DHT22;53063;39.614;8.814;2023-01-13T03:02:43;7.20;99.90
66271;DHT22;53063;39.614;8.814;2023-01-13T03:05:13;7.40;99.90
66271;DHT22;53063;39.614;8.814;2023-01-13T03:10:40;7.40;99.90
66271;DHT22;53063;39.614;8.814;2023-01-13T03:22:14;7.40;99.90
66271;DHT22;53063;39.614;8.814;2023-01-13T03:25:08;7.50;99.90
66271;DHT22;53063;39.614;8.814;2023-01-13T03:30:32;7.20;99.90
66271;DHT22;53063;39.614;8.814;2023-01-13T03:33:18;7.20;99.90
66271;DHT22;53063;39.614;8.814;2023-01-13T03:35:54;7.40;99.90
66271;DHT22;53063;39.614;8.814;2023-01-13T03:41:00;7.50;99.90
66271;DHT22;53063;39.614;8.814;2023-01-13T03:43:41;7.40;99.90
66271;DHT22;53063;39.614;8.814;2023-01-13T03:49:18;7.50;99.90
66271;DHT22;53063;39.614;8.814;2023-01-13T03:51:49;7.50;99.90
66271;DHT22;53063;39.614;8.814;2023-01-13T03:54:19;7.60;99.90
66271;DHT22;53063;39.614;8.814;2023-01-13T03:56:49;7.70;99.90
66271;DHT22;53063;39.614;8.814;2023-01-13T03:59:20;7.90;99.90
66271;DHT22;53063;39.614;8.814;2023-01-13T04:02:03;8.00;99.90
66271;DHT22;53063;39.614;8.814;2023-01-13T04:04:59;8.00;99.90
66271;DHT22;53063;39.614;8.814;2023-01-13T04:08:04;8.10;99.90
66271;DHT22;53063;39.614;8.814;2023-01-13T04:11:18;8.00;99.90
66271;DHT22;53063;39.614;8.814;2023-01-13T04:13:27;8.00;99.90
66271;DHT22;53063;39.614;8.814;2023-01-13T04:15:55;8.10;99.90
66271;DHT22;53063;39.614;8.814;2023-01-13T04:18:23;8.20;99.90
66271;DHT22;53063;39.614;8.814;2023-01-13T04:20:52;8.20;99.90
66271;DHT22;53063;39.614;8.814;2023-01-13T04:23:19;8.30;99.90
66271;DHT22;53063;39.614;8.814;2023-01-13T04:25:46;8.30;99.90
66271;DHT22;53063;39.614;8.814;2023-01-13T04:28:14;8.20;99.90
66271;DHT22;53063;39.614;8.814;2023-01-13T04:30:41;8.20;99.90
66271;DHT22;53063;39.614;8.814;2023-01-13T04:33:07;8.20;99.90
66271;DHT22;53063;39.614;8.814;2023-01-13T04:35:34;8.10;99.90
66271;DHT22;53063;39.614;8.814;2023-01-13T04:38:06;8.10;99.90
66271;DHT22;53063;39.614;8.814;2023-01-13T04:40:33;8.10;99.90
66271;DHT22;53063;39.614;8.814;2023-01-13T04:42:58;8.10;99.90
66271;DHT22;53063;39.614;8.814;2023-01-13T04:45:25;8.20;99.90
66271;DHT22;53063;39.614;8.814;2023-01-13T04:47:50;8.30;99.90
66271;DHT22;53063;39.614;8.814;2023-01-13T04:50:17;8.20;99.90
66271;DHT22;53063;39.614;8.814;2023-01-13T04:52:48;8.20;99.90
66271;DHT22;53063;39.614;8.814;2023-01-13T04:55:15;8.10;99.90
66271;DHT22;53063;39.614;8.814;2023-01-13T04:57:42;8.10;99.90
66271;DHT22;53063;39.614;8.814;2023-01-13T05:00:09;8.00;99.90
66271;DHT22;53063;39.614;8.814;2023-01-13T05:02:36;8.20;99.90
66271;DHT22;53063;39.614;8.814;2023-01-13T05:05:01;8.30;99.90
66271;DHT22;53063;39.614;8.814;2023-01-13T05:07:27;8.30;99.90
66271;DHT22;53063;39.614;8.814;2023-01-13T05:09:53;8.10;99.90
66271;DHT22;53063;39.614;8.814;2023-01-13T05:12:19;8.10;99.90
66271;DHT22;53063;39.614;8.814;2023-01-13T05:15:04;8.20;99.90
66271;DHT22;53063;39.614;8.814;2023-01-13T05:17:49;8.10;99.90
66271;DHT22;53063;39.614;8.814;2023-01-13T05:20:15;8.00;99.90
66271;DHT22;53063;39.614;8.814;2023-01-13T05:22:42;7.80;99.90
66271;DHT22;53063;39.614;8.814;2023-01-13T05:25:27;7.90;99.90
66271;DHT22;53063;39.614;8.814;2023-01-13T05:27:55;7.90;99.90
66271;DHT22;53063;39.614;8.814;2023-01-13T05:30:27;7.90;99.90
66271;DHT22;53063;39.614;8.814;2023-01-13T05:32:53;7.90;99.90
66271;DHT22;53063;39.614;8.814;2023-01-13T05:35:19;7.80;99.90
66271;DHT22;53063;39.614;8.814;2023-01-13T05:37:46;7.80;99.90
66271;DHT22;53063;39.614;8.814;2023-01-13T05:40:14;7.80;99.90
66271;DHT22;53063;39.614;8.814;2023-01-13T05:43:19;7.70;99.90
66271;DHT22;53063;39.614;8.814;2023-01-13T05:48:17;7.40;99.90
66271;DHT22;53063;39.614;8.814;2023-01-13T05:50:44;7.50;99.90
66271;DHT22;53063;39.614;8.814;2023-01-13T05:53:10;7.50;99.90
66271;DHT22;53063;39.614;8.814;2023-01-13T05:55:40;7.30;99.90
66271;DHT22;53063;39.614;8.814;2023-01-13T05:58:07;7.30;99.90
66271;DHT22;53063;39.614;8.814;2023-01-13T06:00:34;7.30;99.90
66271;DHT22;53063;39.614;8.814;2023-01-13T06:03:00;7.30;99.90
66271;DHT22;53063;39.614;8.814;2023-01-13T06:05:26;7.20;99.90
66271;DHT22;53063;39.614;8.814;2023-01-13T06:07:56;7.20;99.90
66271;DHT22;53063;39.614;8.814;2023-01-13T06:10:23;7.20;99.90
66271;DHT22;53063;39.614;8.814;2023-01-13T06:12:49;7.20;99.90
66271;DHT22;53063;39.614;8.814;2023-01-13T06:15:15;7.20;99.90
66271;DHT22;53063;39.614;8.814;2023-01-13T06:17:40;7.20;99.90
66271;DHT22;53063;39.614;8.814;2023-01-13T06:20:07;7.10;99.90
66271;DHT22;53063;39.614;8.814;2023-01-13T06:22:37;7.10;99.90
66271;DHT22;53063;39.614;8.814;2023-01-13T06:25:11;7.10;99.90
66271;DHT22;53063;39.614;8.814;2023-01-13T06:27:39;7.10;99.90
66271;DHT22;53063;39.614;8.814;2023-01-13T06:30:05;7.10;99.90
66271;DHT22;53063;39.614;8.814;2023-01-13T06:32:39;7.00;99.90
66271;DHT22;53063;39.614;8.814;2023-01-13T06:35:11;7.10;99.90
66271;DHT22;53063;39.614;8.814;2023-01-13T06:37:39;7.20;99.90
66271;DHT22;53063;39.614;8.814;2023-01-13T06:40:07;7.20;99.90
66271;DHT22;53063;39.614;8.814;2023-01-13T06:42:35;7.20;99.90
66271;DHT22;53063;39.614;8.814;2023-01-13T06:45:21;7.20;99.90
66271;DHT22;53063;39.614;8.814;2023-01-13T06:47:48;7.10;99.90
66271;DHT22;53063;39.614;8.814;2023-01-13T06:50:17;7.30;99.90
66271;DHT22;53063;39.614;8.814;2023-01-13T06:52:42;7.30;99.90
66271;DHT22;53063;39.614;8.814;2023-01-13T06:55:08;7.20;99.90
66271;DHT22;53063;39.614;8.814;2023-01-13T06:57:34;7.30;99.90
66271;DHT22;53063;39.614;8.814;2023-01-13T07:00:12;7.50;99.90
66271;DHT22;53063;39.614;8.814;2023-01-13T07:02:40;7.70;99.90
66271;DHT22;53063;39.614;8.814;2023-01-13T07:05:06;7.60;99.90
66271;DHT22;53063;39.614;8.814;2023-01-13T07:07:32;7.50;99.90
66271;DHT22;53063;39.614;8.814;2023-01-13T07:09:58;7.60;99.90
66271;DHT22;53063;39.614;8.814;2023-01-13T07:12:25;7.60;99.90
66271;DHT22;53063;39.614;8.814;2023-01-13T07:14:51;7.70;99.90
66271;DHT22;53063;39.614;8.814;2023-01-13T07:17:35;7.80;99.90
66271;DHT22;53063;39.614;8.814;2023-01-13T07:20:01;8.00;99.90
66271;DHT22;53063;39.614;8.814;2023-01-13T07:22:27;8.20;99.90
66271;DHT22;53063;39.614;8.814;2023-01-13T07:24:53;8.20;99.90
66271;DHT22;53063;39.614;8.814;2023-01-13T07:27:18;8.30;99.90
66271;DHT22;53063;39.614;8.814;2023-01-13T07:29:44;8.30;99.90
66271;DHT22;53063;39.614;8.814;2023-01-13T07:32:10;8.40;99.90
66271;DHT22;53063;39.614;8.814;2023-01-13T07:34:36;8.50;99.90
66271;DHT22;53063;39.614;8.814;2023-01-13T07:37:02;8.60;99.90
66271;DHT22;53063;39.614;8.814;2023-01-13T07:39:28;8.80;99.90
66271;DHT22;53063;39.614;8.814;2023-01-13T07:41:54;9.00;99.90
66271;DHT22;53063;39.614;8.814;2023-01-13T07:44:38;9.20;99.90
66271;DHT22;53063;39.614;8.814;2023-01-13T07:47:04;9.40;99.90
66271;DHT22;53063;39.614;8.814;2023-01-13T07:49:30;9.40;99.90
66271;DHT22;53063;39.614;8.814;2023-01-13T07:51:56;9.60;99.90
66271;DHT22;53063;39.614;8.814;2023-01-13T07:54:22;10.30;99.90
66271;DHT22;53063;39.614;8.814;2023-01-13T07:56:48;10.80;99.90
66271;DHT22;53063;39.614;8.814;2023-01-13T07:59:14;10.90;99.90
66271;DHT22;53063;39.614;8.814;2023-01-13T08:01:40;11.00;99.90
66271;DHT22;53063;39.614;8.814;2023-01-13T08:04:06;11.20;99.90
66271;DHT22;53063;39.614;8.814;2023-01-13T08:06:32;11.70;99.90
66271;DHT22;53063;39.614;8.814;2023-01-13T08:08:58;12.30;99.90
66271;DHT22;53063;39.614;8.814;2023-01-13T08:11:24;12.50;99.90
66271;DHT22;53063;39.614;8.814;2023-01-13T08:13:54;12.90;99.90
66271;DHT22;53063;39.614;8.814;2023-01-13T08:16:21;14.00;99.90
66271;DHT22;53063;39.614;8.814;2023-01-13T08:18:46;15.10;99.10
66271;DHT22;53063;39.614;8.814;2023-01-13T08:21:13;16.10;92.70
66271;DHT22;53063;39.614;8.814;2023-01-13T08:23:41;17.30;89.60
66271;DHT22;53063;39.614;8.814;2023-01-13T08:26:09;18.20;84.80
66271;DHT22;53063;39.614;8.814;2023-01-13T08:28:36;18.80;80.30
66271;DHT22;53063;39.614;8.814;2023-01-13T08:31:05;19.80;74.70
66271;DHT22;53063;39.614;8.814;2023-01-13T08:33:31;19.10;72.50
66271;DHT22;53063;39.614;8.814;2023-01-13T08:35:58;19.20;72.70
66271;DHT22;53063;39.614;8.814;2023-01-13T08:38:26;18.20;75.60
66271;DHT22;53063;39.614;8.814;2023-01-13T08:40:52;16.20;81.90
66271;DHT22;53063;39.614;8.814;2023-01-13T08:43:18;16.80;86.30
66271;DHT22;53063;39.614;8.814;2023-01-13T08:45:44;18.10;79.60
66271;DHT22;53063;39.614;8.814;2023-01-13T08:48:10;18.00;79.70
66271;DHT22;53063;39.614;8.814;2023-01-13T08:50:36;18.40;77.90
66271;DHT22;53063;39.614;8.814;2023-01-13T08:53:02;17.50;79.40
66271;DHT22;53063;39.614;8.814;2023-01-13T08:55:28;17.70;77.20
66271;DHT22;53063;39.614;8.814;2023-01-13T08:57:54;16.70;80.50
66271;DHT22;53063;39.614;8.814;2023-01-13T09:00:20;15.80;84.20
66271;DHT22;53063;39.614;8.814;2023-01-13T09:02:46;15.20;88.10
66271;DHT22;53063;39.614;8.814;2023-01-13T09:05:12;15.70;92.00
66271;DHT22;53063;39.614;8.814;2023-01-13T09:07:38;16.40;86.20
66271;DHT22;53063;39.614;8.814;2023-01-13T09:10:05;15.40;87.40
66271;DHT22;53063;39.614;8.814;2023-01-13T09:12:32;14.90;91.30
66271;DHT22;53063;39.614;8.814;2023-01-13T09:15:16;15.00;92.90
66271;DHT22;53063;39.614;8.814;2023-01-13T09:17:44;15.60;95.70
66271;DHT22;53063;39.614;8.814;2023-01-13T09:20:10;16.30;86.30
66271;DHT22;53063;39.614;8.814;2023-01-13T09:22:37;15.80;87.80
66271;DHT22;53063;39.614;8.814;2023-01-13T09:25:05;16.10;88.30
66271;DHT22;53063;39.614;8.814;2023-01-13T09:27:31;17.40;83.30
66271;DHT22;53063;39.614;8.814;2023-01-13T09:29:57;19.50;71.80
66271;DHT22;53063;39.614;8.814;2023-01-13T09:32:23;17.90;72.30
66271;DHT22;53063;39.614;8.814;2023-01-13T09:34:49;17.00;77.10
66271;DHT22;53063;39.614;8.814;2023-01-13T09:37:35;16.70;79.40
66271;DHT22;53063;39.614;8.814;2023-01-13T09:40:17;16.60;80.10
66271;DHT22;53063;39.614;8.814;2023-01-13T09:42:48;16.70;79.60
66271;DHT22;53063;39.614;8.814;2023-01-13T09:53:39;23.00;58.30
66271;DHT22;53063;39.614;8.814;2023-01-13T09:56:09;24.10;53.60
66271;DHT22;53063;39.614;8.814;2023-01-13T09:58:36;24.00;52.20
66271;DHT22;53063;39.614;8.814;2023-01-13T10:03:54;22.90;53.40
66271;DHT22;53063;39.614;8.814;2023-01-13T10:06:25;21.80;55.40
66271;DHT22;53063;39.614;8.814;2023-01-13T10:08:56;18.80;63.70
66271;DHT22;53063;39.614;8.814;2023-01-13T10:11:24;17.40;70.90
66271;DHT22;53063;39.614;8.814;2023-01-13T10:14:27;17.90;74.00
66271;DHT22;53063;39.614;8.814;2023-01-13T10:23:33;23.60;54.20
66271;DHT22;53063;39.614;8.814;2023-01-13T10:28:28;23.40;53.80
66271;DHT22;53063;39.614;8.814;2023-01-13T10:30:55;24.10;51.00
66271;DHT22;53063;39.614;8.814;2023-01-13T10:33:27;22.60;53.00
66271;DHT22;53063;39.614;8.814;2023-01-13T10:38:25;22.80;53.80
66271;DHT22;53063;39.614;8.814;2023-01-13T10:40:52;23.60;50.80
66271;DHT22;53063;39.614;8.814;2023-01-13T10:43:18;24.10;50.30
66271;DHT22;53063;39.614;8.814;2023-01-13T10:46:02;24.20;49.30
66271;DHT22;53063;39.614;8.814;2023-01-13T10:48:38;23.60;50.30
66271;DHT22;53063;39.614;8.814;2023-01-13T10:51:16;24.60;49.90
66271;DHT22;53063;39.614;8.814;2023-01-13T10:56:40;25.90;45.60
66271;DHT22;53063;39.614;8.814;2023-01-13T11:04:28;25.90;44.90
66271;DHT22;53063;39.614;8.814;2023-01-13T11:06:54;26.20;45.50
66271;DHT22;53063;39.614;8.814;2023-01-13T11:09:21;26.80;44.10
66271;DHT22;53063;39.614;8.814;2023-01-13T11:11:48;25.30;45.70
66271;DHT22;53063;39.614;8.814;2023-01-13T11:14:37;21.60;53.60
66271;DHT22;53063;39.614;8.814;2023-01-13T11:17:30;20.80;57.30
66271;DHT22;53063;39.614;8.814;2023-01-13T11:20:24;20.10;60.00
66271;DHT22;53063;39.614;8.814;2023-01-13T11:23:00;19.90;62.50
66271;DHT22;53063;39.614;8.814;2023-01-13T11:25:33;19.70;64.30
66271;DHT22;53063;39.614;8.814;2023-01-13T11:30:54;20.20;61.90
66271;DHT22;53063;39.614;8.814;2023-01-13T11:33:40;19.60;63.40
66271;DHT22;53063;39.614;8.814;2023-01-13T11:36:15;19.20;64.50
66271;DHT22;53063;39.614;8.814;2023-01-13T11:38:51;18.80;66.10
66271;DHT22;53063;39.614;8.814;2023-01-13T11:41:57;17.80;68.70
66271;DHT22;53063;39.614;8.814;2023-01-13T11:47:16;17.40;72.80
66271;DHT22;53063;39.614;8.814;2023-01-13T11:49:45;17.60;73.00
66271;DHT22;53063;39.614;8.814;2023-01-13T11:52:32;17.90;73.90
66271;DHT22;53063;39.614;8.814;2023-01-13T11:58:13;18.80;71.40
66271;DHT22;53063;39.614;8.814;2023-01-13T12:03:52;18.10;72.80
66271;DHT22;53063;39.614;8.814;2023-01-13T12:06:25;18.00;74.00
66271;DHT22;53063;39.614;8.814;2023-01-13T12:11:39;18.10;74.40
66271;DHT22;53063;39.614;8.814;2023-01-13T12:14:44;18.10;73.80
66271;DHT22;53063;39.614;8.814;2023-01-13T12:17:42;18.60;70.80
66271;DHT22;53063;39.614;8.814;2023-01-13T12:23:41;18.80;69.30
66271;DHT22;53063;39.614;8.814;2023-01-13T12:26:13;18.20;71.30
66271;DHT22;53063;39.614;8.814;2023-01-13T12:29:01;18.00;72.50
66271;DHT22;53063;39.614;8.814;2023-01-13T12:31:30;17.70;74.30
66271;DHT22;53063;39.614;8.814;2023-01-13T12:45:47;17.20;74.80
66271;DHT22;53063;39.614;8.814;2023-01-13T12:51:21;16.80;75.90
66271;DHT22;53063;39.614;8.814;2023-01-13T12:53:48;16.60;77.60
66271;DHT22;53063;39.614;8.814;2023-01-13T13:01:45;16.40;80.50
66271;DHT22;53063;39.614;8.814;2023-01-13T13:04:40;16.00;81.20
66271;DHT22;53063;39.614;8.814;2023-01-13T13:07:11;16.20;82.40
66271;DHT22;53063;39.614;8.814;2023-01-13T13:09:48;16.40;81.80
66271;DHT22;53063;39.614;8.814;2023-01-13T13:15:26;16.60;82.40
66271;DHT22;53063;39.614;8.814;2023-01-13T13:40:42;17.40;74.60
66271;DHT22;53063;39.614;8.814;2023-01-13T13:43:29;17.40;75.90
66271;DHT22;53063;39.614;8.814;2023-01-13T13:46:33;17.20;75.70
66271;DHT22;53063;39.614;8.814;2023-01-13T13:49:20;17.10;75.50
66271;DHT22;53063;39.614;8.814;2023-01-13T13:52:11;16.90;75.90
66271;DHT22;53063;39.614;8.814;2023-01-13T13:54:40;17.10;75.20
66271;DHT22;53063;39.614;8.814;2023-01-13T13:57:43;17.00;75.50
66271;DHT22;53063;39.614;8.814;2023-01-13T14:00:20;17.70;74.20
66271;DHT22;53063;39.614;8.814;2023-01-13T14:02:59;17.90;72.40
66271;DHT22;53063;39.614;8.814;2023-01-13T14:05:31;18.50;70.20
66271;DHT22;53063;39.614;8.814;2023-01-13T14:08:14;18.80;67.60
66271;DHT22;53063;39.614;8.814;2023-01-13T14:10:42;18.60;68.50
66271;DHT22;53063;39.614;8.814;2023-01-13T14:13:23;18.50;69.20
66271;DHT22;53063;39.614;8.814;2023-01-13T14:15:58;19.60;66.50
66271;DHT22;53063;39.614;8.814;2023-01-13T14:18:26;21.60;59.60
66271;DHT22;53063;39.614;8.814;2023-01-13T14:21:01;20.90;58.90
66271;DHT22;53063;39.614;8.814;2023-01-13T14:23:30;20.00;61.80
66271;DHT22;53063;39.614;8.814;2023-01-13T14:26:07;19.00;63.40
66271;DHT22;53063;39.614;8.814;2023-01-13T14:28:36;18.20;66.90
66271;DHT22;53063;39.614;8.814;2023-01-13T14:31:04;17.30;71.40
66271;DHT22;53063;39.614;8.814;2023-01-13T14:33:33;17.20;72.20
66271;DHT22;53063;39.614;8.814;2023-01-13T14:36:21;17.00;73.30
66271;DHT22;53063;39.614;8.814;2023-01-13T14:38:49;16.60;75.80
66271;DHT22;53063;39.614;8.814;2023-01-13T14:44:30;16.40;79.00
66271;DHT22;53063;39.614;8.814;2023-01-13T14:47:02;16.30;79.70
66271;DHT22;53063;39.614;8.814;2023-01-13T14:49:39;16.10;80.40
66271;DHT22;53063;39.614;8.814;2023-01-13T14:57:29;16.00;82.20
66271;DHT22;53063;39.614;8.814;2023-01-13T15:02:38;15.80;81.60
66271;DHT22;53063;39.614;8.814;2023-01-13T15:11:18;16.00;80.30
66271;DHT22;53063;39.614;8.814;2023-01-13T15:13:32;15.90;81.10
66271;DHT22;53063;39.614;8.814;2023-01-13T15:16:21;15.80;81.70
66271;DHT22;53063;39.614;8.814;2023-01-13T15:18:48;15.80;81.60
66271;DHT22;53063;39.614;8.814;2023-01-13T15:21:14;15.50;82.20
66271;DHT22;53063;39.614;8.814;2023-01-13T15:23:41;15.40;83.40
66271;DHT22;53063;39.614;8.814;2023-01-13T15:26:27;15.40;84.40
66271;DHT22;53063;39.614;8.814;2023-01-13T15:28:55;15.20;84.80
66271;DHT22;53063;39.614;8.814;2023-01-13T15:31:22;15.20;85.70
66271;DHT22;53063;39.614;8.814;2023-01-13T15:33:48;15.20;86.20
66271;DHT22;53063;39.614;8.814;2023-01-13T15:38:51;15.20;86.70
66271;DHT22;53063;39.614;8.814;2023-01-13T15:41:17;15.10;87.80
66271;DHT22;53063;39.614;8.814;2023-01-13T15:44:03;15.00;88.60
66271;DHT22;53063;39.614;8.814;2023-01-13T15:46:48;15.00;89.40
66271;DHT22;53063;39.614;8.814;2023-01-13T15:49:27;14.90;90.00
66271;DHT22;53063;39.614;8.814;2023-01-13T15:52:00;14.90;91.10
66271;DHT22;53063;39.614;8.814;2023-01-13T15:54:26;14.70;91.90
66271;DHT22;53063;39.614;8.814;2023-01-13T15:56:53;14.60;92.90
66271;DHT22;53063;39.614;8.814;2023-01-13T15:59:22;14.50;94.20
66271;DHT22;53063;39.614;8.814;2023-01-13T16:01:49;14.40;95.90
66271;DHT22;53063;39.614;8.814;2023-01-13T16:04:15;14.30;97.50
66271;DHT22;53063;39.614;8.814;2023-01-13T16:06:41;14.30;98.90
66271;DHT22;53063;39.614;8.814;2023-01-13T16:09:09;14.30;99.50
66271;DHT22;53063;39.614;8.814;2023-01-13T16:11:36;14.20;99.80
66271;DHT22;53063;39.614;8.814;2023-01-13T16:14:01;14.20;99.90
66271;DHT22;53063;39.614;8.814;2023-01-13T16:16:28;14.10;99.90
66271;DHT22;53063;39.614;8.814;2023-01-13T16:18:54;14.10;99.90
66271;DHT22;53063;39.614;8.814;2023-01-13T16:21:21;13.90;99.90
66271;DHT22;53063;39.614;8.814;2023-01-13T16:23:48;13.90;99.90
66271;DHT22;53063;39.614;8.814;2023-01-13T16:26:21;13.80;99.90
66271;DHT22;53063;39.614;8.814;2023-01-13T16:28:48;13.70;99.90
66271;DHT22;53063;39.614;8.814;2023-01-13T16:31:26;13.60;99.90
66271;DHT22;53063;39.614;8.814;2023-01-13T16:33:55;13.60;99.90
66271;DHT22;53063;39.614;8.814;2023-01-13T16:36:21;13.50;99.90
66271;DHT22;53063;39.614;8.814;2023-01-13T16:38:51;13.50;99.90
66271;DHT22;53063;39.614;8.814;2023-01-13T16:41:18;13.40;99.90
66271;DHT22;53063;39.614;8.814;2023-01-13T16:43:45;13.40;99.90
66271;DHT22;53063;39.614;8.814;2023-01-13T16:48:48;13.40;99.90
66271;DHT22;53063;39.614;8.814;2023-01-13T16:51:14;13.30;99.90
66271;DHT22;53063;39.614;8.814;2023-01-13T16:53:41;13.40;99.90
66271;DHT22;53063;39.614;8.814;2023-01-13T16:58:44;13.30;99.90
66271;DHT22;53063;39.614;8.814;2023-01-13T17:01:21;13.20;99.90
66271;DHT22;53063;39.614;8.814;2023-01-13T17:03:48;13.20;99.90
66271;DHT22;53063;39.614;8.814;2023-01-13T17:06:15;13.20;99.90
66271;DHT22;53063;39.614;8.814;2023-01-13T17:08:42;13.20;99.90
66271;DHT22;53063;39.614;8.814;2023-01-13T17:11:07;13.20;99.90
66271;DHT22;53063;39.614;8.814;2023-01-13T17:13:33;13.20;99.90
66271;DHT22;53063;39.614;8.814;2023-01-13T17:15:59;13.20;99.90
66271;DHT22;53063;39.614;8.814;2023-01-13T17:18:25;13.30;99.90
66271;DHT22;53063;39.614;8.814;2023-01-13T17:20:51;13.20;99.90
66271;DHT22;53063;39.614;8.814;2023-01-13T17:23:17;13.20;99.90
66271;DHT22;53063;39.614;8.814;2023-01-13T17:25:43;13.30;99.90
66271;DHT22;53063;39.614;8.814;2023-01-13T17:28:09;13.40;99.90
66271;DHT22;53063;39.614;8.814;2023-01-13T17:30:34;13.30;99.90
66271;DHT22;53063;39.614;8.814;2023-01-13T17:33:00;13.40;99.90
66271;DHT22;53063;39.614;8.814;2023-01-13T17:35:26;13.40;99.90
66271;DHT22;53063;39.614;8.814;2023-01-13T17:37:53;13.50;99.90
66271;DHT22;53063;39.614;8.814;2023-01-13T17:40:19;13.50;99.90
66271;DHT22;53063;39.614;8.814;2023-01-13T17:42:45;13.50;99.90
66271;DHT22;53063;39.614;8.814;2023-01-13T17:45:11;13.50;99.90
66271;DHT22;53063;39.614;8.814;2023-01-13T17:47:37;13.50;99.90
66271;DHT22;53063;39.614;8.814;2023-01-13T17:50:03;13.50;99.90
66271;DHT22;53063;39.614;8.814;2023-01-13T17:52:30;13.40;99.90
66271;DHT22;53063;39.614;8.814;2023-01-13T17:54:56;13.40;99.90
66271;DHT22;53063;39.614;8.814;2023-01-13T17:57:22;13.40;99.90
66271;DHT22;53063;39.614;8.814;2023-01-13T17:59:47;13.40;99.90
66271;DHT22;53063;39.614;8.814;2023-01-13T18:02:13;13.40;99.90
66271;DHT22;53063;39.614;8.814;2023-01-13T18:04:39;13.40;99.90
66271;DHT22;53063;39.614;8.814;2023-01-13T18:07:06;13.40;99.90
66271;DHT22;53063;39.614;8.814;2023-01-13T18:09:32;13.30;99.90
66271;DHT22;53063;39.614;8.814;2023-01-13T18:11:59;13.20;99.90
66271;DHT22;53063;39.614;8.814;2023-01-13T18:14:25;13.30;99.90
66271;DHT22;53063;39.614;8.814;2023-01-13T18:16:51;13.20;99.90
66271;DHT22;53063;39.614;8.814;2023-01-13T18:19:17;13.20;99.90
66271;DHT22;53063;39.614;8.814;2023-01-13T18:22:01;13.10;99.90
66271;DHT22;53063;39.614;8.814;2023-01-13T18:24:46;13.00;99.90
66271;DHT22;53063;39.614;8.814;2023-01-13T18:27:32;13.00;99.90
66271;DHT22;53063;39.614;8.814;2023-01-13T18:30:00;13.00;99.90
66271;DHT22;53063;39.614;8.814;2023-01-13T18:32:28;12.90;99.90
66271;DHT22;53063;39.614;8.814;2023-01-13T18:34:59;12.90;99.90
66271;DHT22;53063;39.614;8.814;2023-01-13T18:37:26;12.90;99.90
66271;DHT22;53063;39.614;8.814;2023-01-13T18:39:52;12.80;99.90
66271;DHT22;53063;39.614;8.814;2023-01-13T18:42:18;12.80;99.90